createdAt,value
2022-10-23T00:00:06.318Z,101356.25
2022-10-23T00:02:32.889Z,101361.41
2022-10-23T00:04:59.535Z,101362.75
2022-10-23T00:07:26.102Z,101356.25
2022-10-23T00:09:52.722Z,101357.28
2022-10-23T00:12:19.229Z,101364.75
2022-10-23T00:14:45.755Z,101359.00
2022-10-23T00:17:12.720Z,101359.16
2022-10-23T00:19:39.185Z,101356.72
2022-10-23T00:22:05.672Z,101346.03
2022-10-23T00:24:32.145Z,101348.66
2022-10-23T00:26:58.797Z,101340.31
2022-10-23T00:29:25.836Z,101349.69
2022-10-23T00:31:52.294Z,101353.66
2022-10-23T00:34:19.430Z,101353.75
2022-10-23T00:36:45.904Z,101356.31
2022-10-23T00:39:12.556Z,101351.91
2022-10-23T00:41:39.077Z,101342.53
2022-10-23T00:44:17.951Z,101347.13
2022-10-23T00:46:45.969Z,101354.13
2022-10-23T00:51:50.261Z,101352.19
2022-10-23T00:54:23.962Z,101350.28
2022-10-23T00:56:53.021Z,101352.88
2022-10-23T00:59:19.488Z,101354.13
2022-10-23T01:01:46.099Z,101349.84
2022-10-23T01:04:12.672Z,101343.41
2022-10-23T01:06:48.042Z,101338.66
2022-10-23T01:09:31.936Z,101343.63
2022-10-23T01:12:09.364Z,101334.09
2022-10-23T01:14:51.938Z,101344.66
2022-10-23T01:17:20.378Z,101338.16
2022-10-23T01:20:11.486Z,101337.81
2022-10-23T01:22:55.078Z,101331.84
2022-10-23T01:31:47.506Z,101325.03
2022-10-23T01:34:17.535Z,101327.59
2022-10-23T01:36:47.748Z,101319.56
2022-10-23T01:39:27.891Z,101312.22
2022-10-23T01:42:14.763Z,101308.31
2022-10-23T01:44:48.579Z,101306.06
2022-10-23T01:47:17.504Z,101300.97
2022-10-23T01:49:44.767Z,101310.03
2022-10-23T01:52:13.299Z,101303.16
2022-10-23T01:54:43.027Z,101304.84
2022-10-23T01:57:13.485Z,101314.44
2022-10-23T01:59:44.618Z,101306.44
2022-10-23T02:02:12.169Z,101295.56
2022-10-23T02:05:02.532Z,101292.50
2022-10-23T02:07:29.690Z,101310.59
2022-10-23T02:09:56.237Z,101301.72
2022-10-23T02:12:46.684Z,101298.66
2022-10-23T02:15:17.449Z,101298.97
2022-10-23T02:17:57.363Z,101291.78
2022-10-23T02:20:29.047Z,101294.19
2022-10-23T02:23:03.500Z,101288.94
2022-10-23T02:25:41.242Z,101285.53
2022-10-23T02:28:11.038Z,101277.66
2022-10-23T02:30:38.808Z,101277.19
2022-10-23T02:33:06.316Z,101280.47
2022-10-23T02:35:33.056Z,101274.88
2022-10-23T02:38:00.965Z,101271.09
2022-10-23T02:40:41.248Z,101262.72
2022-10-23T02:43:19.495Z,101258.63
2022-10-23T02:46:04.622Z,101250.81
2022-10-23T02:48:45.969Z,101245.50
2022-10-23T02:51:19.265Z,101232.50
2022-10-23T02:54:01.317Z,101233.53
2022-10-23T02:56:37.975Z,101223.63
2022-10-23T03:02:23.305Z,101218.16
2022-10-23T03:04:52.088Z,101221.94
2022-10-23T03:07:19.053Z,101212.69
2022-10-23T03:09:45.529Z,101217.13
2022-10-23T03:12:12.008Z,101215.94
2022-10-23T03:14:38.582Z,101214.88
2022-10-23T03:17:05.635Z,101205.19
2022-10-23T03:19:32.096Z,101208.59
2022-10-23T03:21:58.571Z,101201.72
2022-10-23T03:24:25.159Z,101210.97
2022-10-23T03:26:51.640Z,101207.19
2022-10-23T03:29:18.127Z,101199.16
2022-10-23T03:31:44.668Z,101196.25
2022-10-23T03:34:11.594Z,101193.00
2022-10-23T03:36:38.200Z,101186.53
2022-10-23T03:39:05.117Z,101180.41
2022-10-23T03:41:32.072Z,101177.84
2022-10-23T03:43:58.628Z,101169.47
2022-10-23T03:46:25.263Z,101167.94
2022-10-23T03:48:51.728Z,101169.28
2022-10-23T03:51:18.191Z,101163.81
2022-10-23T03:53:44.683Z,101168.25
2022-10-23T03:56:11.124Z,101168.94
2022-10-23T03:58:37.612Z,101159.69
2022-10-23T04:01:04.103Z,101162.72
2022-10-23T04:03:30.640Z,101161.88
2022-10-23T04:05:57.143Z,101160.28
2022-10-23T04:08:23.650Z,101150.66
2022-10-23T04:10:50.157Z,101147.94
2022-10-23T04:13:16.660Z,101144.38
2022-10-23T04:15:51.515Z,101128.16
2022-10-23T04:18:18.181Z,101122.38
2022-10-23T04:20:47.669Z,101115.69
2022-10-23T04:23:14.147Z,101111.25
2022-10-23T04:25:40.666Z,101114.84
2022-10-23T04:28:07.350Z,101107.88
2022-10-23T04:30:34.394Z,101108.91
2022-10-23T04:33:00.869Z,101108.03
2022-10-23T04:35:27.391Z,101117.75
2022-10-23T04:37:54.015Z,101107.66
2022-10-23T04:40:20.669Z,101116.19
2022-10-23T04:42:47.136Z,101112.22
2022-10-23T04:45:13.595Z,101117.84
2022-10-23T04:47:40.061Z,101116.34
2022-10-23T04:50:06.966Z,101106.75
2022-10-23T04:52:33.453Z,101104.19
2022-10-23T04:54:59.928Z,101113.72
2022-10-23T04:57:26.459Z,101099.59
2022-10-23T04:59:52.923Z,101090.72
2022-10-23T05:02:19.457Z,101089.38
2022-10-23T05:04:46.017Z,101087.03
2022-10-23T05:07:12.529Z,101089.25
2022-10-23T05:09:39.121Z,101094.09
2022-10-23T05:12:05.766Z,101104.94
2022-10-23T05:14:32.248Z,101111.63
2022-10-23T05:17:13.102Z,101103.25
2022-10-23T05:19:43.903Z,101096.94
2022-10-23T05:22:11.263Z,101086.34
2022-10-23T05:24:37.720Z,101095.78
2022-10-23T05:27:04.260Z,101090.31
2022-10-23T05:29:30.847Z,101100.03
2022-10-23T05:32:00.103Z,101104.63
2022-10-23T05:34:28.054Z,101106.53
2022-10-23T05:36:54.901Z,101097.28
2022-10-23T05:39:21.505Z,101097.66
2022-10-23T05:41:48.028Z,101095.94
2022-10-23T05:44:14.565Z,101087.84
2022-10-23T05:46:44.294Z,101083.88
2022-10-23T05:49:10.772Z,101090.84
2022-10-23T05:51:38.827Z,101087.47
2022-10-23T05:54:08.139Z,101081.69
2022-10-23T05:56:39.120Z,101064.28
2022-10-23T05:59:07.695Z,101061.91
2022-10-23T06:01:34.343Z,101067.72
2022-10-23T06:04:01.464Z,101063.78
2022-10-23T06:06:27.928Z,101060.38
2022-10-23T06:08:54.585Z,101058.81
2022-10-23T06:11:21.045Z,101047.41
2022-10-23T06:13:48.487Z,101044.19
2022-10-23T06:16:17.813Z,101049.16
2022-10-23T06:18:45.931Z,101051.03
2022-10-23T06:21:12.808Z,101045.03
2022-10-23T06:23:40.319Z,101047.41
2022-10-23T06:26:08.611Z,101030.53
2022-10-23T06:28:35.305Z,101030.53
2022-10-23T06:31:09.463Z,101031.34
2022-10-23T06:33:35.980Z,101013.63
2022-10-23T06:36:03.632Z,101007.31
2022-10-23T06:38:34.638Z,101003.09
2022-10-23T06:41:01.106Z,101012.94
2022-10-23T06:43:27.737Z,101011.41
2022-10-23T06:45:54.457Z,101015.44
2022-10-23T06:48:20.947Z,101025.63
2022-10-23T06:50:47.490Z,101022.72
2022-10-23T06:53:13.969Z,101018.75
2022-10-23T06:55:40.614Z,101012.81
2022-10-23T06:58:10.634Z,101011.09
2022-10-23T07:00:40.053Z,100994.91
2022-10-23T07:03:08.535Z,100968.03
2022-10-23T07:05:35.146Z,100970.97
2022-10-23T07:08:01.632Z,100980.69
2022-10-23T07:10:28.126Z,100987.47
2022-10-23T07:12:56.639Z,100982.28
2022-10-23T07:15:23.103Z,100987.75
2022-10-23T07:17:49.639Z,100985.97
2022-10-23T07:20:16.171Z,100989.63
2022-10-23T07:22:42.855Z,100990.31
2022-10-23T07:25:09.593Z,100990.78
2022-10-23T07:27:38.336Z,100986.63
2022-10-23T07:30:05.209Z,100978.22
2022-10-23T07:32:31.741Z,100977.66
2022-10-23T07:34:58.274Z,100969.91
2022-10-23T07:37:24.844Z,100963.59
2022-10-23T07:39:51.315Z,100964.44
2022-10-23T07:42:17.880Z,100951.63
2022-10-23T07:44:44.359Z,100955.19
2022-10-23T07:47:10.820Z,100954.38
2022-10-23T07:49:37.330Z,100948.31
2022-10-23T07:52:05.199Z,100958.69
2022-10-23T07:54:31.941Z,100956.59
2022-10-23T07:57:01.721Z,100961.97
2022-10-23T07:59:28.243Z,100951.75
2022-10-23T08:01:57.869Z,100960.19
2022-10-23T08:04:25.101Z,100957.22
2022-10-23T08:06:52.318Z,100941.41
2022-10-23T08:09:18.949Z,100936.13
2022-10-23T08:11:45.425Z,100934.69
2022-10-23T08:14:11.916Z,100929.88
2022-10-23T08:16:39.405Z,100925.06
2022-10-23T08:19:07.518Z,100919.22
2022-10-23T08:21:34.214Z,100911.38
2022-10-23T08:24:00.949Z,100905.56
2022-10-23T08:26:31.625Z,100900.53
2022-10-23T08:28:59.167Z,100907.13
2022-10-23T08:31:26.063Z,100909.53
2022-10-23T08:33:52.831Z,100899.41
2022-10-23T08:36:27.899Z,100908.28
2022-10-23T08:38:56.048Z,100900.09
2022-10-23T08:41:28.280Z,100906.94
2022-10-23T08:44:02.712Z,100908.41
2022-10-23T08:46:33.158Z,100912.44
2022-10-23T08:52:34.647Z,100891.19
2022-10-23T08:55:17.846Z,100897.53
2022-10-23T08:57:55.757Z,100892.50
2022-10-23T09:00:22.374Z,100892.78
2022-10-23T09:02:51.617Z,100887.09
2022-10-23T09:05:31.802Z,100900.78
2022-10-23T09:08:11.715Z,100887.13
2022-10-23T09:10:56.869Z,100877.50
2022-10-23T09:13:48.554Z,100871.19
2022-10-23T09:16:45.950Z,100860.69
2022-10-23T09:19:16.919Z,100850.97
2022-10-23T09:21:46.333Z,100853.28
2022-10-23T09:24:18.341Z,100852.19
2022-10-23T09:26:49.784Z,100846.28
2022-10-23T09:29:32.785Z,100841.22
2022-10-23T09:32:00.904Z,100845.84
2022-10-23T09:34:30.073Z,100836.97
2022-10-23T09:37:02.402Z,100848.78
2022-10-23T09:39:34.963Z,100830.22
2022-10-23T09:42:13.087Z,100835.88
2022-10-23T09:44:48.264Z,100831.44
2022-10-23T09:47:22.688Z,100832.69
2022-10-23T09:49:51.870Z,100840.97
2022-10-23T09:52:18.336Z,100822.69
2022-10-23T09:57:48.099Z,100822.19
2022-10-23T10:00:14.965Z,100815.63
2022-10-23T10:03:01.508Z,100811.88
2022-10-23T10:05:29.438Z,100794.81
2022-10-23T10:08:00.270Z,100802.22
2022-10-23T10:10:29.774Z,100798.50
2022-10-23T10:13:01.768Z,100777.41
2022-10-23T10:15:35.470Z,100778.72
2022-10-23T10:18:19.812Z,100772.03
2022-10-23T10:21:04.982Z,100755.81
2022-10-23T10:23:43.492Z,100742.75
2022-10-23T10:26:19.164Z,100747.19
2022-10-23T10:28:58.551Z,100736.19
2022-10-23T10:31:57.026Z,100727.78
2022-10-23T10:34:30.594Z,100714.47
2022-10-23T10:37:10.276Z,100707.94
2022-10-23T10:40:09.209Z,100692.13
2022-10-23T10:42:46.398Z,100674.81
2022-10-23T10:45:19.283Z,100676.09
2022-10-23T10:47:51.667Z,100672.94
2022-10-23T10:50:36.297Z,100669.97
2022-10-23T10:53:22.319Z,100686.84
2022-10-23T10:55:51.885Z,100677.09
2022-10-23T10:58:43.396Z,100680.69
2022-10-23T11:01:35.131Z,100667.56
2022-10-23T11:04:13.038Z,100663.47
2022-10-23T11:06:41.919Z,100646.66
2022-10-23T11:09:20.554Z,100630.44
2022-10-23T11:11:48.718Z,100613.38
2022-10-23T11:14:24.138Z,100606.59
2022-10-23T11:16:52.737Z,100614.88
2022-10-23T11:19:29.368Z,100616.97
2022-10-23T11:22:04.987Z,100613.75
2022-10-23T11:24:58.231Z,100597.72
2022-10-23T11:27:30.760Z,100595.66
2022-10-23T11:30:25.979Z,100592.22
2022-10-23T11:36:15.917Z,100578.31
2022-10-23T11:38:45.048Z,100588.94
2022-10-23T11:41:21.054Z,100586.78
2022-10-23T11:44:01.722Z,100584.69
2022-10-23T11:46:38.912Z,100578.41
2022-10-23T11:49:19.103Z,100580.50
2022-10-23T11:51:45.770Z,100575.94
2022-10-23T11:54:13.492Z,100571.00
2022-10-23T11:57:07.009Z,100571.81
2022-10-23T11:59:44.836Z,100574.78
2022-10-23T12:02:46.284Z,100564.22
2022-10-23T12:05:37.816Z,100559.28
2022-10-23T12:08:07.005Z,100549.47
2022-10-23T12:10:35.518Z,100549.38
2022-10-23T12:13:04.337Z,100546.56
2022-10-23T12:15:32.840Z,100549.41
2022-10-23T12:18:15.621Z,100551.47
2022-10-23T12:20:57.599Z,100546.75
2022-10-23T12:24:03.607Z,100544.22
2022-10-23T12:26:50.699Z,100538.03
2022-10-23T12:29:32.136Z,100531.13
2022-10-23T12:32:04.765Z,100528.19
2022-10-23T12:34:45.302Z,100507.19
2022-10-23T12:37:24.024Z,100503.72
2022-10-23T12:39:55.983Z,100505.03
2022-10-23T12:42:24.551Z,100499.44
2022-10-23T12:45:01.163Z,100481.56
2022-10-23T12:47:28.674Z,100479.22
2022-10-23T12:49:55.193Z,100475.25
2022-10-23T12:52:24.513Z,100464.59
2022-10-23T12:54:51.224Z,100447.94
2022-10-23T12:57:30.111Z,100437.53
2022-10-23T12:59:58.918Z,100443.84
2022-10-23T13:02:28.273Z,100443.38
2022-10-23T13:04:55.966Z,100444.56
2022-10-23T13:07:28.270Z,100445.28
2022-10-23T13:09:55.313Z,100429.97
2022-10-23T13:12:27.635Z,100426.69
2022-10-23T13:14:59.055Z,100417.66
2022-10-23T13:20:42.077Z,100406.63
2022-10-23T13:26:33.643Z,100403.75
2022-10-23T13:29:07.343Z,100393.69
2022-10-23T13:31:35.940Z,100398.00
2022-10-23T13:34:02.387Z,100386.38
2022-10-23T13:36:31.445Z,100380.50
2022-10-23T13:39:11.681Z,100396.44
2022-10-23T13:41:41.027Z,100374.59
2022-10-23T13:44:09.132Z,100381.59
2022-10-23T13:46:35.712Z,100363.19
2022-10-23T13:49:02.209Z,100364.00
2022-10-23T13:51:29.760Z,100376.72
2022-10-23T13:53:57.347Z,100362.13
2022-10-23T13:56:26.019Z,100361.28
2022-10-23T13:58:52.839Z,100365.94
2022-10-23T14:01:25.857Z,100367.38
2022-10-23T14:03:54.037Z,100357.78
2022-10-23T14:06:20.729Z,100356.56
2022-10-23T14:08:47.536Z,100359.50
2022-10-23T14:11:15.853Z,100365.31
2022-10-23T14:13:42.473Z,100354.91
2022-10-23T14:16:10.177Z,100359.59
2022-10-23T14:18:36.683Z,100350.41
2022-10-23T14:21:05.109Z,100344.44
2022-10-23T14:23:31.581Z,100362.72
2022-10-23T14:26:21.261Z,100350.06
2022-10-23T14:28:47.982Z,100344.00
2022-10-23T14:31:16.707Z,100357.78
2022-10-23T14:33:44.827Z,100348.22
2022-10-23T14:36:11.463Z,100344.38
2022-10-23T14:38:38.072Z,100348.78
2022-10-23T14:41:10.853Z,100335.88
2022-10-23T14:43:37.613Z,100331.31
2022-10-23T14:46:15.815Z,100325.09
2022-10-23T14:48:46.078Z,100332.56
2022-10-23T14:51:21.582Z,100324.75
2022-10-23T14:53:48.927Z,100315.78
2022-10-23T14:56:16.065Z,100318.56
2022-10-23T14:58:43.348Z,100312.66
2022-10-23T15:01:10.763Z,100312.06
2022-10-23T15:03:37.560Z,100304.97
2022-10-23T15:06:04.461Z,100302.09
2022-10-23T15:08:31.228Z,100303.09
2022-10-23T15:11:07.674Z,100288.34
2022-10-23T15:13:36.755Z,100286.78
2022-10-23T15:16:10.403Z,100283.19
2022-10-23T15:21:09.011Z,100275.16
2022-10-23T15:23:40.457Z,100269.44
2022-10-23T15:26:11.318Z,100285.38
2022-10-23T15:28:38.317Z,100267.97
2022-10-23T15:31:05.561Z,100280.19
2022-10-23T15:33:32.081Z,100267.25
2022-10-23T15:35:58.557Z,100267.34
2022-10-23T15:38:26.089Z,100272.53
2022-10-23T15:40:54.360Z,100266.41
2022-10-23T15:43:20.835Z,100274.34
2022-10-23T15:45:47.321Z,100268.81
2022-10-23T15:48:13.889Z,100272.75
2022-10-23T15:50:40.378Z,100264.84
2022-10-23T15:53:07.047Z,100267.00
2022-10-23T15:55:33.784Z,100251.53
2022-10-23T15:58:04.114Z,100262.31
2022-10-23T16:00:30.857Z,100271.66
2022-10-23T16:02:58.026Z,100253.22
2022-10-23T16:05:24.583Z,100252.16
2022-10-23T16:07:51.097Z,100243.50
2022-10-23T16:10:18.790Z,100247.38
2022-10-23T16:12:45.473Z,100251.53
2022-10-23T16:15:12.319Z,100252.16
2022-10-23T16:17:38.822Z,100261.63
2022-10-23T16:20:05.805Z,100260.19
2022-10-23T16:22:32.274Z,100243.06
2022-10-23T16:24:58.752Z,100251.22
2022-10-23T16:27:25.309Z,100249.53
2022-10-23T16:29:51.858Z,100238.41
2022-10-23T16:32:18.452Z,100230.81
2022-10-23T16:34:45.446Z,100236.72
2022-10-23T16:37:12.053Z,100244.63
2022-10-23T16:39:38.623Z,100245.13
2022-10-23T16:42:05.351Z,100239.97
2022-10-23T16:44:31.979Z,100226.44
2022-10-23T16:46:58.471Z,100227.00
2022-10-23T16:49:25.060Z,100218.97
2022-10-23T16:51:51.568Z,100215.63
2022-10-23T16:54:18.053Z,100210.00
2022-10-23T16:56:45.269Z,100196.81
2022-10-23T16:59:11.742Z,100189.84
2022-10-23T17:01:38.686Z,100185.31
2022-10-23T17:04:06.352Z,100201.03
2022-10-23T17:06:33.382Z,100210.00
2022-10-23T17:09:01.239Z,100199.81
2022-10-23T17:11:32.686Z,100212.03
2022-10-23T17:14:02.072Z,100208.56
2022-10-23T17:19:45.704Z,100206.16
2022-10-23T17:22:13.263Z,100208.66
2022-10-23T17:24:41.050Z,100220.53
2022-10-23T17:27:07.864Z,100226.66
2022-10-23T17:29:34.946Z,100211.28
2022-10-23T17:32:01.501Z,100206.16
2022-10-23T17:34:28.029Z,100215.63
2022-10-23T17:36:55.542Z,100205.41
2022-10-23T17:39:27.590Z,100187.31
2022-10-23T17:41:55.071Z,100180.59
2022-10-23T17:44:21.632Z,100194.38
2022-10-23T17:46:53.644Z,100191.16
2022-10-23T17:49:20.479Z,100178.84
2022-10-23T17:51:51.576Z,100169.25
2022-10-23T17:54:18.277Z,100150.91
2022-10-23T17:56:46.130Z,100138.44
2022-10-23T17:59:15.265Z,100150.41
2022-10-23T18:01:46.458Z,100160.38
2022-10-23T18:04:13.127Z,100185.19
2022-10-23T18:06:45.226Z,100196.81
2022-10-23T18:09:12.158Z,100216.44
2022-10-23T18:11:45.331Z,100241.50
2022-10-23T18:14:13.686Z,100254.75
2022-10-23T18:16:40.875Z,100267.53
2022-10-23T18:19:07.959Z,100244.38
2022-10-23T18:21:35.786Z,100228.94
2022-10-23T18:24:02.526Z,100227.75
2022-10-23T18:26:30.636Z,100232.75
2022-10-23T18:28:58.801Z,100272.31
2022-10-23T18:31:27.467Z,100294.94
2022-10-23T18:33:59.660Z,100288.22
2022-10-23T18:36:29.095Z,100291.81
2022-10-23T18:41:31.989Z,100388.72
2022-10-23T18:43:58.520Z,100381.88
2022-10-23T18:46:25.000Z,100371.91
2022-10-23T18:48:51.518Z,100389.06
2022-10-23T18:51:19.872Z,100425.63
2022-10-23T18:53:46.894Z,100436.41
2022-10-23T18:56:14.793Z,100410.84
2022-10-23T18:58:41.507Z,100381.78
2022-10-23T19:01:08.171Z,100363.84
2022-10-23T19:03:34.777Z,100353.81
2022-10-23T19:06:01.308Z,100328.53
2022-10-23T19:08:28.764Z,100318.22
2022-10-23T19:10:57.565Z,100300.34
2022-10-23T19:13:24.187Z,100296.78
2022-10-23T19:15:50.997Z,100291.91
2022-10-23T19:18:17.545Z,100294.66
2022-10-23T19:20:44.174Z,100291.50
2022-10-23T19:23:12.841Z,100289.19
2022-10-23T19:25:45.309Z,100274.88
2022-10-23T19:28:11.953Z,100276.75
2022-10-23T19:30:39.595Z,100276.56
2022-10-23T19:33:06.280Z,100265.16
2022-10-23T19:35:32.751Z,100272.31
2022-10-23T19:37:59.339Z,100266.84
2022-10-23T19:40:25.986Z,100271.66
2022-10-23T19:42:54.233Z,100271.88
2022-10-23T19:45:20.888Z,100271.25
2022-10-23T19:47:47.943Z,100276.50
2022-10-23T19:50:14.669Z,100280.91
2022-10-23T19:52:41.235Z,100283.47
2022-10-23T19:55:08.939Z,100291.25
2022-10-23T19:57:35.504Z,100295.09
2022-10-23T20:00:02.391Z,100304.34
2022-10-23T20:02:29.099Z,100309.41
2022-10-23T20:04:55.765Z,100310.66
2022-10-23T20:07:22.409Z,100306.97
2022-10-23T20:09:49.054Z,100304.19
2022-10-23T20:12:15.600Z,100297.59
2022-10-23T20:14:42.146Z,100293.53
2022-10-23T20:17:08.700Z,100298.16
2022-10-23T20:19:35.256Z,100297.28
2022-10-23T20:22:01.880Z,100305.13
2022-10-23T20:24:28.406Z,100317.59
2022-10-23T20:26:55.681Z,100318.84
2022-10-23T20:29:22.862Z,100311.66
2022-10-23T20:31:49.377Z,100321.16
2022-10-23T20:34:16.019Z,100328.50
2022-10-23T20:36:46.698Z,100318.78
2022-10-23T20:39:17.550Z,100326.75
2022-10-23T20:41:45.220Z,100323.38
2022-10-23T20:44:13.897Z,100335.59
2022-10-23T20:46:40.738Z,100329.28
2022-10-23T20:49:07.542Z,100336.66
2022-10-23T20:51:35.776Z,100328.63
2022-10-23T20:54:02.293Z,100323.56
2022-10-23T20:56:31.454Z,100334.97
2022-10-23T20:59:07.020Z,100327.16
2022-10-23T21:01:34.599Z,100331.41
2022-10-23T21:04:02.318Z,100331.66
2022-10-23T21:06:40.981Z,100336.31
2022-10-23T21:09:17.219Z,100334.25
2022-10-23T21:11:43.775Z,100331.09
2022-10-23T21:14:10.262Z,100331.31
2022-10-23T21:16:40.845Z,100319.53
2022-10-23T21:19:14.004Z,100319.31
2022-10-23T21:21:40.518Z,100324.25
2022-10-23T21:24:10.127Z,100315.53
2022-10-23T21:26:36.837Z,100322.31
2022-10-23T21:29:20.005Z,100306.28
2022-10-23T21:31:58.569Z,100304.19
2022-10-23T21:34:25.862Z,100302.69
2022-10-23T21:39:39.244Z,100297.47
2022-10-23T21:42:05.864Z,100292.00
2022-10-23T21:44:32.501Z,100292.00
2022-10-23T21:46:58.988Z,100285.03
2022-10-23T21:49:25.458Z,100285.03
2022-10-23T21:51:52.109Z,100292.22
2022-10-23T21:54:18.600Z,100282.50
2022-10-23T21:56:47.895Z,100302.09
2022-10-23T21:59:17.280Z,100306.28
2022-10-23T22:01:45.304Z,100302.94
2022-10-23T22:04:14.081Z,100307.78
2022-10-23T22:06:41.541Z,100301.03
2022-10-23T22:09:08.621Z,100303.69
2022-10-23T22:11:35.291Z,100289.66
2022-10-23T22:14:01.829Z,100281.25
2022-10-23T22:16:28.377Z,100274.59
2022-10-23T22:18:55.061Z,100283.91
2022-10-23T22:21:23.983Z,100268.06
2022-10-23T22:23:51.354Z,100268.06
2022-10-23T22:26:22.346Z,100262.09
2022-10-23T22:28:50.658Z,100288.03
2022-10-23T22:31:25.694Z,100275.56
2022-10-23T22:33:53.067Z,100272.19
2022-10-23T22:36:20.374Z,100271.13
2022-10-23T22:38:47.355Z,100262.91
2022-10-23T22:41:14.347Z,100254.66
2022-10-23T22:43:40.975Z,100260.53
2022-10-23T22:46:09.989Z,100242.44
2022-10-23T22:48:36.993Z,100233.47
2022-10-23T22:51:06.310Z,100240.81
2022-10-23T22:53:35.054Z,100242.50
2022-10-23T22:56:01.544Z,100242.88
2022-10-23T22:58:28.003Z,100239.13
2022-10-23T23:01:07.166Z,100227.53
2022-10-23T23:03:35.987Z,100224.84
2022-10-23T23:06:04.906Z,100240.75
2022-10-23T23:08:31.473Z,100235.09
2022-10-23T23:10:58.549Z,100226.88
2022-10-23T23:13:25.955Z,100228.00
2022-10-23T23:15:52.692Z,100244.28
2022-10-23T23:18:19.353Z,100227.31
2022-10-23T23:20:45.896Z,100222.75
2022-10-23T23:23:14.173Z,100230.13
2022-10-23T23:25:46.145Z,100229.28
2022-10-23T23:28:16.776Z,100225.88
2022-10-23T23:30:43.891Z,100225.50
2022-10-23T23:33:12.053Z,100222.13
2022-10-23T23:35:43.419Z,100205.22
2022-10-23T23:38:10.971Z,100206.69
2022-10-23T23:40:38.374Z,100219.72
2022-10-23T23:43:05.200Z,100211.28
2022-10-23T23:45:31.933Z,100208.69
2022-10-23T23:47:58.702Z,100203.41
2022-10-23T23:50:26.164Z,100199.59
2022-10-23T23:52:52.773Z,100201.53
2022-10-23T23:55:19.340Z,100194.72
2022-10-23T23:57:45.941Z,100199.25
